4Y9 weather

Eagles Landing Airport
Harrietta, Michigan, United States

Public forecast

Using degrees Fahrenheit for public forecast. Weather courtesy of forecast.io.

Closest aviation weather report (METAR) to Eagles Landing Airport

Closest report is Wexford County Airport, 15.3 nm (28.4 km) E. Retrieved 2019/10/16 06:36 UTC (0 seconds ago):

KCAD 160636Z AUTO 25008KT 10SM BKN009 OVC016 08/07 A2958 RMK AO2 T00830070

Closest aviation forecast (TAF) to Eagles Landing Airport

Closest forecast is Manistee Co Blacker Airport, 20.5 nm (38.0 km) W. Retrieved 2019/10/16 06:24 UTC (0 seconds ago):

TAF KMBL 160523Z 1606/1706 26010G19KT P6SM OVC015 FM160900 31011G19KT 5SM -SHRA BR OVC006 FM161000 32015G28KT 3SM -SHRA BR OVC006 FM161400 33021G33KT P6SM -SHRA OVC012 FM162100 34021G36KT P6SM VCSH OVC021 FM170000 34018G32KT P6SM OVC026